world map with LIM marked

LIM - Airport

This information may not be accurate or current and is not valid for navigation or flight planning. No warranty of fitness for any purpose is made or implied.

flag of Callaoflag of Perú

Donate via PayPal

Additional information is available on the NEW Great Circle Mapper

Location
City:  Lima, Callao, Perú
Near (Alt.):Callao
Name:Jorge Chávez International Airport
ICAO / IATA:SPJC / LIM

Details
Type:Airport (Aerodrome, Airfield)
Use:Public/Civil, Military
Latitude:12°01'19"S (-12.021885)
Longitude:77°06'52"W (-77.114316)
Elevation:113 ft (34 m)
Runways:1
Longest:11506 × 148 ft (3507 × 45 m)

Time
Timezone:UTC+29:08 (DST+31:08)
Local Time:

Weather
METAR:SPJC  220600Z 17005KT 9000 SCT019 16/13 Q1016 NOSIG RMK PP000
TAF:SPJC  212300Z 2200/2224 19006KT 9999 OVCLVA1912 212330 GG EGGYYBYA EGZZMSAM KWBCYMYX KWBCYZYX 212330 SPIMYZYX FTPR77 SPIM 212300 SPCL 212300Z 2200/2224 VRB02KT 9999 NSC TX27/2217Z TN18/2210Z BECMG 2208/2210 FEW015 TEMPO 2210/2212 00000KT 5000 BR BECMG 2216/2219 15006KT 9999 FEW020

Related Locations
Nearby:
Farthest:KKZ: 12442 mi / 20024 km
Koh Kong [Koh Kong Airport], 9, KH

Find:

   beyond  
but within

Other Information
Maps:
Sources:

  

Airport Diagram

Airport diagram for LIM

Airport diagram (OBSOLETE) from NGA

 


Great Circle Mapper   Great Circle Mapper
Great Circle Mapper FAQ   Great Circle Mapper FAQ
  Karl's Home Page
KLS˛   KLS˛ Home
   GC on Facebook
Airlines of the World   Airlines of the World
Donate via PayPal


Copyright © 2004-2017, Karl L. Swartz. All rights reserved.
All trademarks mentioned herein belong to their respective owners.

Please see credits for attribution and copyright information.

Karl Swartz <karl@kls2.com>
  Powered by FreeBSD
Valid HTML 4.01!
Labeled with ICRA
hCard Microformat
Geo Microformat